sensor_id;sensor_type;location;lat;lon;timestamp;pressure;altitude;pressure_sealevel;temperature;humidity
65173;BME280;69059;52.218;5.172;2023-12-20T00:01:22;99510.38;;;5.85;100.00
65173;BME280;69059;52.218;5.172;2023-12-20T00:03:49;99502.63;;;5.85;100.00
65173;BME280;69059;52.218;5.172;2023-12-20T00:06:17;99504.97;;;5.80;100.00
65173;BME280;69059;52.218;5.172;2023-12-20T00:08:45;99506.81;;;5.71;100.00
65173;BME280;69059;52.218;5.172;2023-12-20T00:11:14;99518.63;;;5.74;100.00
65173;BME280;69059;52.218;5.172;2023-12-20T00:13:42;99521.47;;;5.79;100.00
65173;BME280;69059;52.218;5.172;2023-12-20T00:16:12;99513.25;;;5.75;100.00
65173;BME280;69059;52.218;5.172;2023-12-20T00:18:40;99516.38;;;5.71;100.00
65173;BME280;69059;52.218;5.172;2023-12-20T00:21:08;99514.16;;;5.68;100.00
65173;BME280;69059;52.218;5.172;2023-12-20T00:23:36;99509.78;;;5.68;100.00
65173;BME280;69059;52.218;5.172;2023-12-20T00:26:04;99521.66;;;5.63;100.00
65173;BME280;69059;52.218;5.172;2023-12-20T00:28:32;99537.81;;;5.65;100.00
65173;BME280;69059;52.218;5.172;2023-12-20T00:31:00;99535.47;;;5.70;100.00
65173;BME280;69059;52.218;5.172;2023-12-20T00:33:30;99544.06;;;5.56;100.00
65173;BME280;69059;52.218;5.172;2023-12-20T00:35:58;99539.31;;;5.59;100.00
65173;BME280;69059;52.218;5.172;2023-12-20T00:38:26;99550.56;;;5.52;100.00
65173;BME280;69059;52.218;5.172;2023-12-20T00:40:53;99539.69;;;5.56;100.00
65173;BME280;69059;52.218;5.172;2023-12-20T00:43:22;99536.66;;;5.53;100.00
65173;BME280;69059;52.218;5.172;2023-12-20T00:45:50;99546.53;;;5.49;100.00
65173;BME280;69059;52.218;5.172;2023-12-20T00:48:18;99548.25;;;5.57;100.00
65173;BME280;69059;52.218;5.172;2023-12-20T00:50:47;99549.16;;;5.64;100.00
65173;BME280;69059;52.218;5.172;2023-12-20T00:53:15;99544.59;;;5.66;100.00
65173;BME280;69059;52.218;5.172;2023-12-20T00:55:43;99546.75;;;5.62;100.00
65173;BME280;69059;52.218;5.172;2023-12-20T00:58:11;99539.16;;;5.61;100.00
65173;BME280;69059;52.218;5.172;2023-12-20T01:00:42;99484.06;;;5.37;100.00
65173;BME280;69059;52.218;5.172;2023-12-20T01:03:10;99522.97;;;5.59;100.00
65173;BME280;69059;52.218;5.172;2023-12-20T01:05:38;99528.63;;;5.62;100.00
65173;BME280;69059;52.218;5.172;2023-12-20T01:08:07;99532.91;;;5.55;100.00
65173;BME280;69059;52.218;5.172;2023-12-20T01:10:35;99538.09;;;5.55;100.00
65173;BME280;69059;52.218;5.172;2023-12-20T01:13:03;99540.94;;;5.60;100.00
65173;BME280;69059;52.218;5.172;2023-12-20T01:15:30;99553.06;;;5.60;100.00
65173;BME280;69059;52.218;5.172;2023-12-20T01:17:58;99561.94;;;5.65;100.00
65173;BME280;69059;52.218;5.172;2023-12-20T01:20:26;99558.63;;;5.71;100.00
65173;BME280;69059;52.218;5.172;2023-12-20T01:22:54;99551.47;;;5.73;100.00
65173;BME280;69059;52.218;5.172;2023-12-20T01:25:23;99544.63;;;5.81;100.00
65173;BME280;69059;52.218;5.172;2023-12-20T01:27:51;99545.06;;;5.69;100.00
65173;BME280;69059;52.218;5.172;2023-12-20T01:30:19;99543.34;;;5.76;100.00
65173;BME280;69059;52.218;5.172;2023-12-20T01:32:47;99535.47;;;5.70;100.00
65173;BME280;69059;52.218;5.172;2023-12-20T01:35:15;99544.84;;;5.71;100.00
65173;BME280;69059;52.218;5.172;2023-12-20T01:37:44;99538.88;;;5.70;100.00
65173;BME280;69059;52.218;5.172;2023-12-20T01:40:12;99543.53;;;5.75;100.00
65173;BME280;69059;52.218;5.172;2023-12-20T01:42:42;99544.78;;;5.79;100.00
65173;BME280;69059;52.218;5.172;2023-12-20T01:45:11;99546.81;;;5.84;100.00
65173;BME280;69059;52.218;5.172;2023-12-20T01:47:38;99540.50;;;5.86;100.00
65173;BME280;69059;52.218;5.172;2023-12-20T01:50:07;99540.03;;;5.83;100.00
65173;BME280;69059;52.218;5.172;2023-12-20T01:52:36;99535.25;;;5.80;100.00
65173;BME280;69059;52.218;5.172;2023-12-20T01:55:05;99544.38;;;5.90;100.00
65173;BME280;69059;52.218;5.172;2023-12-20T01:57:40;99543.41;;;5.91;100.00
65173;BME280;69059;52.218;5.172;2023-12-20T02:00:12;99532.13;;;5.99;100.00
65173;BME280;69059;52.218;5.172;2023-12-20T02:02:41;99524.28;;;6.07;100.00
65173;BME280;69059;52.218;5.172;2023-12-20T02:05:09;99528.81;;;6.05;100.00
65173;BME280;69059;52.218;5.172;2023-12-20T02:07:36;99533.56;;;6.01;100.00
65173;BME280;69059;52.218;5.172;2023-12-20T02:10:05;99545.81;;;6.07;100.00
65173;BME280;69059;52.218;5.172;2023-12-20T02:12:33;99550.34;;;6.05;100.00
65173;BME280;69059;52.218;5.172;2023-12-20T02:15:01;99552.94;;;6.05;100.00
65173;BME280;69059;52.218;5.172;2023-12-20T02:17:31;99545.81;;;6.07;100.00
65173;BME280;69059;52.218;5.172;2023-12-20T02:19:59;99541.22;;;6.09;100.00
65173;BME280;69059;52.218;5.172;2023-12-20T02:22:29;99529.53;;;6.14;100.00
65173;BME280;69059;52.218;5.172;2023-12-20T02:24:57;99533.78;;;6.21;100.00
65173;BME280;69059;52.218;5.172;2023-12-20T02:27:25;99522.81;;;6.19;100.00
65173;BME280;69059;52.218;5.172;2023-12-20T02:29:53;99522.03;;;6.19;100.00
65173;BME280;69059;52.218;5.172;2023-12-20T02:32:22;99516.44;;;6.22;100.00
65173;BME280;69059;52.218;5.172;2023-12-20T02:34:52;99515.47;;;6.23;100.00
65173;BME280;69059;52.218;5.172;2023-12-20T02:37:21;99513.31;;;6.26;100.00
65173;BME280;69059;52.218;5.172;2023-12-20T02:39:50;99512.63;;;6.32;100.00
65173;BME280;69059;52.218;5.172;2023-12-20T02:42:18;99517.69;;;6.26;100.00
65173;BME280;69059;52.218;5.172;2023-12-20T02:44:46;99524.22;;;6.22;100.00
65173;BME280;69059;52.218;5.172;2023-12-20T02:47:14;99523.41;;;6.21;100.00
65173;BME280;69059;52.218;5.172;2023-12-20T02:49:42;99528.59;;;6.21;100.00
65173;BME280;69059;52.218;5.172;2023-12-20T02:52:10;99529.22;;;6.23;100.00
65173;BME280;69059;52.218;5.172;2023-12-20T02:54:38;99512.22;;;6.35;100.00
65173;BME280;69059;52.218;5.172;2023-12-20T02:57:07;99503.13;;;6.25;100.00
65173;BME280;69059;52.218;5.172;2023-12-20T02:59:35;99515.66;;;6.21;100.00
65173;BME280;69059;52.218;5.172;2023-12-20T03:02:03;99516.44;;;6.22;100.00
65173;BME280;69059;52.218;5.172;2023-12-20T03:04:31;99505.38;;;6.28;100.00
65173;BME280;69059;52.218;5.172;2023-12-20T03:07:00;99512.34;;;6.27;100.00
65173;BME280;69059;52.218;5.172;2023-12-20T03:09:28;99518.50;;;6.26;100.00
65173;BME280;69059;52.218;5.172;2023-12-20T03:12:04;99536.81;;;6.25;100.00
65173;BME280;69059;52.218;5.172;2023-12-20T03:14:33;99539.06;;;6.28;100.00
65173;BME280;69059;52.218;5.172;2023-12-20T03:17:01;99539.59;;;6.23;100.00
65173;BME280;69059;52.218;5.172;2023-12-20T03:19:29;99543.44;;;6.27;100.00
65173;BME280;69059;52.218;5.172;2023-12-20T03:21:57;99567.56;;;6.28;100.00
65173;BME280;69059;52.218;5.172;2023-12-20T03:24:27;99577.22;;;6.34;100.00
65173;BME280;69059;52.218;5.172;2023-12-20T03:26:55;99579.38;;;6.30;100.00
65173;BME280;69059;52.218;5.172;2023-12-20T03:29:23;99583.19;;;6.34;100.00
65173;BME280;69059;52.218;5.172;2023-12-20T03:31:53;99584.09;;;6.27;100.00
65173;BME280;69059;52.218;5.172;2023-12-20T03:34:20;99573.38;;;6.30;100.00
65173;BME280;69059;52.218;5.172;2023-12-20T03:36:50;99578.22;;;6.33;100.00
65173;BME280;69059;52.218;5.172;2023-12-20T03:39:18;99586.78;;;6.33;100.00
65173;BME280;69059;52.218;5.172;2023-12-20T03:41:46;99600.53;;;6.34;100.00
65173;BME280;69059;52.218;5.172;2023-12-20T03:44:13;99600.53;;;6.34;100.00
65173;BME280;69059;52.218;5.172;2023-12-20T03:46:41;99601.34;;;6.34;100.00
65173;BME280;69059;52.218;5.172;2023-12-20T03:49:10;99598.31;;;6.45;100.00
65173;BME280;69059;52.218;5.172;2023-12-20T03:51:38;99605.81;;;6.40;100.00
65173;BME280;69059;52.218;5.172;2023-12-20T03:54:06;99610.81;;;6.42;100.00
65173;BME280;69059;52.218;5.172;2023-12-20T03:56:34;99616.81;;;6.42;100.00
65173;BME280;69059;52.218;5.172;2023-12-20T03:59:02;99610.66;;;6.43;100.00
65173;BME280;69059;52.218;5.172;2023-12-20T04:01:30;99606.88;;;6.46;100.00
65173;BME280;69059;52.218;5.172;2023-12-20T04:03:58;99599.53;;;6.50;100.00
65173;BME280;69059;52.218;5.172;2023-12-20T04:06:27;99597.94;;;6.48;100.00
65173;BME280;69059;52.218;5.172;2023-12-20T04:08:57;99593.91;;;6.46;100.00
65173;BME280;69059;52.218;5.172;2023-12-20T04:11:25;99575.88;;;6.38;100.00
65173;BME280;69059;52.218;5.172;2023-12-20T04:13:53;99578.34;;;6.46;100.00
65173;BME280;69059;52.218;5.172;2023-12-20T04:16:20;99585.94;;;6.47;100.00
65173;BME280;69059;52.218;5.172;2023-12-20T04:18:49;99583.00;;;6.51;100.00
65173;BME280;69059;52.218;5.172;2023-12-20T04:21:17;99577.97;;;6.64;100.00
65173;BME280;69059;52.218;5.172;2023-12-20T04:23:46;99565.81;;;6.64;100.00
65173;BME280;69059;52.218;5.172;2023-12-20T04:26:14;99546.22;;;6.62;100.00
65173;BME280;69059;52.218;5.172;2023-12-20T04:28:42;99380.81;;;6.57;100.00
65173;BME280;69059;52.218;5.172;2023-12-20T04:31:10;99684.22;;;6.57;100.00
65173;BME280;69059;52.218;5.172;2023-12-20T04:33:38;99693.06;;;6.63;100.00
65173;BME280;69059;52.218;5.172;2023-12-20T04:36:06;99701.81;;;6.62;100.00
65173;BME280;69059;52.218;5.172;2023-12-20T04:38:35;99704.22;;;6.63;100.00
65173;BME280;69059;52.218;5.172;2023-12-20T04:41:05;99718.00;;;6.64;100.00
65173;BME280;69059;52.218;5.172;2023-12-20T04:43:33;99675.91;;;6.32;100.00
65173;BME280;69059;52.218;5.172;2023-12-20T04:46:01;99724.34;;;6.61;100.00
65173;BME280;69059;52.218;5.172;2023-12-20T04:48:29;99720.78;;;6.62;100.00
65173;BME280;69059;52.218;5.172;2023-12-20T04:50:57;99722.03;;;6.66;100.00
65173;BME280;69059;52.218;5.172;2023-12-20T04:53:24;99723.66;;;6.67;100.00
65173;BME280;69059;52.218;5.172;2023-12-20T04:55:52;99726.78;;;6.63;100.00
65173;BME280;69059;52.218;5.172;2023-12-20T04:58:22;99674.91;;;6.33;100.00
65173;BME280;69059;52.218;5.172;2023-12-20T05:00:50;99725.44;;;6.67;100.00
65173;BME280;69059;52.218;5.172;2023-12-20T05:03:18;99734.28;;;6.72;100.00
65173;BME280;69059;52.218;5.172;2023-12-20T05:05:47;99730.16;;;6.63;100.00
65173;BME280;69059;52.218;5.172;2023-12-20T05:08:15;99756.38;;;6.68;100.00
65173;BME280;69059;52.218;5.172;2023-12-20T05:10:43;99754.69;;;6.75;100.00
65173;BME280;69059;52.218;5.172;2023-12-20T05:13:10;99755.31;;;6.77;100.00
65173;BME280;69059;52.218;5.172;2023-12-20T05:15:40;99765.59;;;6.71;100.00
65173;BME280;69059;52.218;5.172;2023-12-20T05:18:07;99772.66;;;6.77;100.00
65173;BME280;69059;52.218;5.172;2023-12-20T05:20:36;99786.78;;;6.74;100.00
65173;BME280;69059;52.218;5.172;2023-12-20T05:23:04;99780.25;;;6.78;100.00
65173;BME280;69059;52.218;5.172;2023-12-20T05:25:32;99792.88;;;6.81;100.00
65173;BME280;69059;52.218;5.172;2023-12-20T05:27:59;99799.56;;;6.76;100.00
65173;BME280;69059;52.218;5.172;2023-12-20T05:30:27;99795.19;;;6.76;100.00
65173;BME280;69059;52.218;5.172;2023-12-20T05:32:57;99782.03;;;6.63;100.00
65173;BME280;69059;52.218;5.172;2023-12-20T05:35:25;99779.56;;;6.70;100.00
65173;BME280;69059;52.218;5.172;2023-12-20T05:37:53;99789.13;;;6.69;100.00
65173;BME280;69059;52.218;5.172;2023-12-20T05:40:20;99795.53;;;6.73;100.00
65173;BME280;69059;52.218;5.172;2023-12-20T05:42:48;99790.91;;;6.69;100.00
65173;BME280;69059;52.218;5.172;2023-12-20T05:45:16;99790.63;;;6.78;100.00
65173;BME280;69059;52.218;5.172;2023-12-20T05:47:44;99801.19;;;6.77;100.00
65173;BME280;69059;52.218;5.172;2023-12-20T05:50:14;99779.28;;;6.79;100.00
65173;BME280;69059;52.218;5.172;2023-12-20T05:52:42;99795.31;;;6.83;100.00
65173;BME280;69059;52.218;5.172;2023-12-20T05:55:10;99802.81;;;6.78;100.00
65173;BME280;69059;52.218;5.172;2023-12-20T05:57:38;99798.50;;;6.85;100.00
65173;BME280;69059;52.218;5.172;2023-12-20T06:00:07;99818.28;;;6.86;100.00
65173;BME280;69059;52.218;5.172;2023-12-20T06:02:36;99815.50;;;6.88;100.00
65173;BME280;69059;52.218;5.172;2023-12-20T06:05:04;99826.50;;;6.90;100.00
65173;BME280;69059;52.218;5.172;2023-12-20T06:07:34;99824.56;;;6.92;100.00
65173;BME280;69059;52.218;5.172;2023-12-20T06:10:02;99792.25;;;6.65;100.00
65173;BME280;69059;52.218;5.172;2023-12-20T06:12:30;99828.94;;;6.91;100.00
65173;BME280;69059;52.218;5.172;2023-12-20T06:14:59;99803.97;;;6.75;100.00
65173;BME280;69059;52.218;5.172;2023-12-20T06:17:27;99825.25;;;6.86;100.00
65173;BME280;69059;52.218;5.172;2023-12-20T06:19:57;99825.06;;;6.87;100.00
65173;BME280;69059;52.218;5.172;2023-12-20T06:22:25;99826.97;;;6.93;100.00
65173;BME280;69059;52.218;5.172;2023-12-20T06:24:55;99824.91;;;7.03;100.00
65173;BME280;69059;52.218;5.172;2023-12-20T06:27:23;99841.81;;;6.99;100.00
65173;BME280;69059;52.218;5.172;2023-12-20T06:29:51;99861.69;;;7.07;100.00
65173;BME280;69059;52.218;5.172;2023-12-20T06:32:19;99871.63;;;7.03;100.00
65173;BME280;69059;52.218;5.172;2023-12-20T06:34:47;99878.13;;;6.99;100.00
65173;BME280;69059;52.218;5.172;2023-12-20T06:37:15;99865.09;;;6.93;100.00
65173;BME280;69059;52.218;5.172;2023-12-20T06:39:43;99859.16;;;6.99;100.00
65173;BME280;69059;52.218;5.172;2023-12-20T06:42:12;99868.56;;;7.00;100.00
65173;BME280;69059;52.218;5.172;2023-12-20T06:44:40;99874.84;;;7.05;100.00
65173;BME280;69059;52.218;5.172;2023-12-20T06:47:09;99878.44;;;7.04;100.00
65173;BME280;69059;52.218;5.172;2023-12-20T06:49:37;99876.00;;;7.03;100.00
65173;BME280;69059;52.218;5.172;2023-12-20T06:52:05;99858.81;;;7.02;100.00
65173;BME280;69059;52.218;5.172;2023-12-20T06:54:32;99859.72;;;7.09;100.00
65173;BME280;69059;52.218;5.172;2023-12-20T06:57:01;99857.91;;;7.09;100.00
65173;BME280;69059;52.218;5.172;2023-12-20T06:59:31;99864.53;;;7.12;100.00
65173;BME280;69059;52.218;5.172;2023-12-20T07:01:58;99864.53;;;7.12;100.00
65173;BME280;69059;52.218;5.172;2023-12-20T07:04:26;99873.94;;;7.13;100.00
65173;BME280;69059;52.218;5.172;2023-12-20T07:06:54;99876.53;;;7.13;100.00
65173;BME280;69059;52.218;5.172;2023-12-20T07:09:24;99869.09;;;7.10;100.00
65173;BME280;69059;52.218;5.172;2023-12-20T07:11:52;99864.66;;;7.04;100.00
65173;BME280;69059;52.218;5.172;2023-12-20T07:14:20;99850.69;;;7.05;100.00
65173;BME280;69059;52.218;5.172;2023-12-20T07:16:50;99848.53;;;7.08;100.00
65173;BME280;69059;52.218;5.172;2023-12-20T07:19:18;99843.69;;;7.05;100.00
65173;BME280;69059;52.218;5.172;2023-12-20T07:21:46;99836.78;;;7.12;100.00
65173;BME280;69059;52.218;5.172;2023-12-20T07:24:13;99844.06;;;7.17;100.00
65173;BME280;69059;52.218;5.172;2023-12-20T07:26:41;99847.34;;;7.11;100.00
65173;BME280;69059;52.218;5.172;2023-12-20T07:29:09;99797.44;;;6.79;100.00
65173;BME280;69059;52.218;5.172;2023-12-20T07:31:37;99828.59;;;7.09;100.00
65173;BME280;69059;52.218;5.172;2023-12-20T07:34:08;99808.19;;;7.06;100.00
65173;BME280;69059;52.218;5.172;2023-12-20T07:36:36;99810.59;;;7.07;100.00
65173;BME280;69059;52.218;5.172;2023-12-20T07:39:04;99815.63;;;7.09;100.00
65173;BME280;69059;52.218;5.172;2023-12-20T07:41:31;99823.66;;;7.14;100.00
65173;BME280;69059;52.218;5.172;2023-12-20T07:43:59;99832.69;;;7.18;100.00
65173;BME280;69059;52.218;5.172;2023-12-20T07:46:27;99840.47;;;7.18;100.00
65173;BME280;69059;52.218;5.172;2023-12-20T07:48:55;99854.16;;;7.12;100.00
65173;BME280;69059;52.218;5.172;2023-12-20T07:51:25;99850.22;;;7.16;100.00
65173;BME280;69059;52.218;5.172;2023-12-20T07:53:53;99835.63;;;7.15;100.00
65173;BME280;69059;52.218;5.172;2023-12-20T07:56:21;99835.81;;;7.13;100.00
65173;BME280;69059;52.218;5.172;2023-12-20T07:58:48;99831.59;;;7.12;100.00
65173;BME280;69059;52.218;5.172;2023-12-20T08:01:20;99833.41;;;7.12;100.00
65173;BME280;69059;52.218;5.172;2023-12-20T08:03:49;99838.25;;;7.15;100.00
65173;BME280;69059;52.218;5.172;2023-12-20T08:06:18;99833.50;;;7.18;100.00
65173;BME280;69059;52.218;5.172;2023-12-20T08:08:47;99839.84;;;7.16;100.00
65173;BME280;69059;52.218;5.172;2023-12-20T08:11:27;99834.56;;;7.24;100.00
65173;BME280;69059;52.218;5.172;2023-12-20T08:13:55;99840.38;;;7.26;100.00
65173;BME280;69059;52.218;5.172;2023-12-20T08:16:23;99840.19;;;7.28;100.00
65173;BME280;69059;52.218;5.172;2023-12-20T13:33:42;99745.69;;;8.63;100.00
65173;BME280;69059;52.218;5.172;2023-12-20T13:36:30;99772.69;;;8.62;100.00
65173;BME280;69059;52.218;5.172;2023-12-20T13:39:18;99814.72;;;8.59;100.00
65173;BME280;69059;52.218;5.172;2023-12-20T13:42:08;99862.59;;;8.65;100.00
65173;BME280;69059;52.218;5.172;2023-12-20T13:44:56;99887.19;;;8.62;100.00
65173;BME280;69059;52.218;5.172;2023-12-20T13:47:44;99880.19;;;8.62;100.00
65173;BME280;69059;52.218;5.172;2023-12-20T13:50:34;99932.81;;;8.58;100.00
65173;BME280;69059;52.218;5.172;2023-12-20T13:53:22;99933.41;;;8.60;100.00
65173;BME280;69059;52.218;5.172;2023-12-20T13:56:10;99919.66;;;8.66;100.00
65173;BME280;69059;52.218;5.172;2023-12-20T13:58:58;99899.97;;;8.57;100.00
65173;BME280;69059;52.218;5.172;2023-12-20T14:01:46;99900.41;;;8.60;100.00
65173;BME280;69059;52.218;5.172;2023-12-20T14:04:35;99905.78;;;8.59;100.00
65173;BME280;69059;52.218;5.172;2023-12-20T14:07:31;99911.03;;;8.66;100.00
65173;BME280;69059;52.218;5.172;2023-12-20T14:10:19;99893.16;;;8.56;100.00
65173;BME280;69059;52.218;5.172;2023-12-20T14:13:07;99874.13;;;8.55;100.00
65173;BME280;69059;52.218;5.172;2023-12-20T14:15:55;99856.53;;;8.57;100.00
65173;BME280;69059;52.218;5.172;2023-12-20T14:18:43;99867.97;;;8.63;100.00
65173;BME280;69059;52.218;5.172;2023-12-20T14:21:31;99862.91;;;8.55;100.00
65173;BME280;69059;52.218;5.172;2023-12-20T14:24:21;99831.47;;;8.50;100.00
65173;BME280;69059;52.218;5.172;2023-12-20T14:27:09;99822.03;;;8.49;100.00
65173;BME280;69059;52.218;5.172;2023-12-20T14:29:57;99815.84;;;8.50;100.00
65173;BME280;69059;52.218;5.172;2023-12-20T14:32:45;99800.84;;;8.52;100.00
65173;BME280;69059;52.218;5.172;2023-12-20T14:35:34;99786.91;;;8.59;100.00
65173;BME280;69059;52.218;5.172;2023-12-20T14:38:22;99776.25;;;8.48;100.00
65173;BME280;69059;52.218;5.172;2023-12-20T14:41:12;99756.41;;;8.47;100.00
65173;BME280;69059;52.218;5.172;2023-12-20T14:44:00;99755.84;;;8.51;100.00
65173;BME280;69059;52.218;5.172;2023-12-20T14:46:51;99758.25;;;8.53;100.00
65173;BME280;69059;52.218;5.172;2023-12-20T14:49:39;99752.25;;;8.52;100.00
65173;BME280;69059;52.218;5.172;2023-12-20T14:52:27;99750.22;;;8.48;100.00
65173;BME280;69059;52.218;5.172;2023-12-20T14:55:16;99738.59;;;8.44;100.00
65173;BME280;69059;52.218;5.172;2023-12-20T14:58:05;99744.78;;;8.43;100.00
65173;BME280;69059;52.218;5.172;2023-12-20T15:00:53;99734.38;;;8.43;100.00
65173;BME280;69059;52.218;5.172;2023-12-20T15:03:42;99699.56;;;8.44;100.00
65173;BME280;69059;52.218;5.172;2023-12-20T15:06:31;99682.19;;;8.51;100.00
65173;BME280;69059;52.218;5.172;2023-12-20T15:09:20;99697.16;;;8.42;100.00
65173;BME280;69059;52.218;5.172;2023-12-20T15:12:08;99713.00;;;8.47;100.00
65173;BME280;69059;52.218;5.172;2023-12-20T15:14:57;99712.00;;;8.48;100.00
65173;BME280;69059;52.218;5.172;2023-12-20T15:17:45;99709.97;;;8.44;100.00
65173;BME280;69059;52.218;5.172;2023-12-20T15:20:34;99710.78;;;8.44;100.00
65173;BME280;69059;52.218;5.172;2023-12-20T15:23:23;99712.59;;;8.50;100.00
65173;BME280;69059;52.218;5.172;2023-12-20T15:26:13;99712.19;;;8.47;100.00
65173;BME280;69059;52.218;5.172;2023-12-20T15:29:00;99703.78;;;8.45;100.00
65173;BME280;69059;52.218;5.172;2023-12-20T15:31:50;99696.53;;;8.40;100.00
65173;BME280;69059;52.218;5.172;2023-12-20T15:34:38;99692.75;;;8.43;100.00
65173;BME280;69059;52.218;5.172;2023-12-20T15:37:26;99676.16;;;8.44;100.00
65173;BME280;69059;52.218;5.172;2023-12-20T15:40:14;99646.13;;;8.41;100.00
65173;BME280;69059;52.218;5.172;2023-12-20T15:43:03;99605.31;;;8.35;100.00
65173;BME280;69059;52.218;5.172;2023-12-20T15:45:51;99568.09;;;8.35;100.00
65173;BME280;69059;52.218;5.172;2023-12-20T15:48:40;99530.28;;;8.39;100.00
65173;BME280;69059;52.218;5.172;2023-12-20T15:51:28;99536.81;;;8.28;100.00
65173;BME280;69059;52.218;5.172;2023-12-20T15:54:16;99521.84;;;8.30;100.00
65173;BME280;69059;52.218;5.172;2023-12-20T15:57:04;99476.41;;;8.19;100.00
65173;BME280;69059;52.218;5.172;2023-12-20T15:59:52;99462.59;;;8.25;100.00
65173;BME280;69059;52.218;5.172;2023-12-20T16:02:40;99445.28;;;8.33;100.00
65173;BME280;69059;52.218;5.172;2023-12-20T16:05:30;99433.41;;;8.23;100.00
65173;BME280;69059;52.218;5.172;2023-12-20T16:08:18;99428.81;;;8.25;100.00
65173;BME280;69059;52.218;5.172;2023-12-20T16:11:07;99438.59;;;8.23;100.00
65173;BME280;69059;52.218;5.172;2023-12-20T16:13:55;99425.00;;;8.28;100.00
65173;BME280;69059;52.218;5.172;2023-12-20T16:16:43;99419.63;;;8.30;100.00
65173;BME280;69059;52.218;5.172;2023-12-20T16:19:31;99415.81;;;8.25;100.00
65173;BME280;69059;52.218;5.172;2023-12-20T16:22:21;99399.81;;;8.28;100.00
65173;BME280;69059;52.218;5.172;2023-12-20T16:25:09;99392.03;;;8.22;100.00
65173;BME280;69059;52.218;5.172;2023-12-20T16:27:58;99372.81;;;8.16;100.00
65173;BME280;69059;52.218;5.172;2023-12-20T16:30:46;99347.00;;;8.15;100.00
65173;BME280;69059;52.218;5.172;2023-12-20T16:33:34;99328.00;;;8.08;100.00
65173;BME280;69059;52.218;5.172;2023-12-20T16:36:22;99289.59;;;8.03;100.00
65173;BME280;69059;52.218;5.172;2023-12-20T16:39:12;99250.41;;;7.98;100.00
65173;BME280;69059;52.218;5.172;2023-12-20T16:42:00;99218.84;;;7.95;100.00
65173;BME280;69059;52.218;5.172;2023-12-20T16:44:48;99190.66;;;7.85;100.00
65173;BME280;69059;52.218;5.172;2023-12-20T16:47:36;99170.66;;;7.85;100.00
65173;BME280;69059;52.218;5.172;2023-12-20T16:50:24;99147.28;;;7.79;100.00
65173;BME280;69059;52.218;5.172;2023-12-20T16:53:14;99126.31;;;7.80;100.00
65173;BME280;69059;52.218;5.172;2023-12-20T16:56:04;99134.91;;;7.81;100.00
65173;BME280;69059;52.218;5.172;2023-12-20T16:58:52;99131.72;;;7.72;100.00
65173;BME280;69059;52.218;5.172;2023-12-20T17:01:40;99106.94;;;7.70;100.00
65173;BME280;69059;52.218;5.172;2023-12-20T17:04:32;99107.13;;;7.75;100.00
65173;BME280;69059;52.218;5.172;2023-12-20T17:07:20;99088.13;;;7.74;100.00
65173;BME280;69059;52.218;5.172;2023-12-20T17:10:08;99076.16;;;7.80;100.00
65173;BME280;69059;52.218;5.172;2023-12-20T17:12:58;99074.16;;;7.82;100.00
65173;BME280;69059;52.218;5.172;2023-12-20T17:15:46;99085.50;;;7.87;100.00
65173;BME280;69059;52.218;5.172;2023-12-20T17:18:34;99075.13;;;7.87;100.00
65173;BME280;69059;52.218;5.172;2023-12-20T17:21:23;99075.56;;;7.84;100.00
65173;BME280;69059;52.218;5.172;2023-12-20T17:24:11;99089.91;;;7.94;100.00
65173;BME280;69059;52.218;5.172;2023-12-20T17:26:59;99071.13;;;7.91;100.00
65173;BME280;69059;52.218;5.172;2023-12-20T17:29:50;99068.94;;;7.88;100.00
65173;BME280;69059;52.218;5.172;2023-12-20T17:32:38;99065.72;;;7.86;100.00
65173;BME280;69059;52.218;5.172;2023-12-20T17:35:26;99049.53;;;7.91;100.00
65173;BME280;69059;52.218;5.172;2023-12-20T17:38:14;99050.72;;;7.95;100.00
65173;BME280;69059;52.218;5.172;2023-12-20T17:41:03;99032.94;;;7.85;100.00
65173;BME280;69059;52.218;5.172;2023-12-20T17:43:51;99052.34;;;7.96;100.00
65173;BME280;69059;52.218;5.172;2023-12-20T17:46:40;99039.75;;;7.86;100.00
65173;BME280;69059;52.218;5.172;2023-12-20T17:49:29;99057.53;;;7.96;100.00
65173;BME280;69059;52.218;5.172;2023-12-20T17:52:18;99073.69;;;7.98;100.00
65173;BME280;69059;52.218;5.172;2023-12-20T17:55:07;99086.50;;;8.06;100.00
65173;BME280;69059;52.218;5.172;2023-12-20T17:57:55;99074.28;;;8.00;100.00
65173;BME280;69059;52.218;5.172;2023-12-20T18:00:43;99074.50;;;7.99;100.00
65173;BME280;69059;52.218;5.172;2023-12-20T18:03:33;99064.09;;;8.05;100.00
65173;BME280;69059;52.218;5.172;2023-12-20T18:06:22;99062.09;;;8.01;100.00
65173;BME280;69059;52.218;5.172;2023-12-20T18:09:10;99051.91;;;7.99;100.00
65173;BME280;69059;52.218;5.172;2023-12-20T18:11:58;99055.69;;;8.03;100.00
65173;BME280;69059;52.218;5.172;2023-12-20T18:14:47;99055.09;;;8.01;100.00
65173;BME280;69059;52.218;5.172;2023-12-20T18:17:35;99054.50;;;8.06;100.00
65173;BME280;69059;52.218;5.172;2023-12-20T18:20:25;99044.72;;;8.01;100.00
65173;BME280;69059;52.218;5.172;2023-12-20T18:23:13;99030.91;;;8.01;100.00
65173;BME280;69059;52.218;5.172;2023-12-20T18:26:01;99018.91;;;8.00;100.00
65173;BME280;69059;52.218;5.172;2023-12-20T18:28:49;99012.31;;;8.04;100.00
65173;BME280;69059;52.218;5.172;2023-12-20T18:31:37;98990.34;;;8.00;100.00
65173;BME280;69059;52.218;5.172;2023-12-20T18:34:26;98982.94;;;8.03;100.00
65173;BME280;69059;52.218;5.172;2023-12-20T18:37:17;98957.34;;;8.07;100.00
65173;BME280;69059;52.218;5.172;2023-12-20T18:40:06;98932.34;;;8.06;100.00
65173;BME280;69059;52.218;5.172;2023-12-20T18:42:55;98887.63;;;7.97;100.00
65173;BME280;69059;52.218;5.172;2023-12-20T18:45:45;98879.78;;;8.04;100.00
65173;BME280;69059;52.218;5.172;2023-12-20T18:48:33;98847.78;;;8.03;100.00
65173;BME280;69059;52.218;5.172;2023-12-20T18:51:21;98845.97;;;8.10;100.00
65173;BME280;69059;52.218;5.172;2023-12-20T18:54:10;98840.53;;;8.12;100.00
65173;BME280;69059;52.218;5.172;2023-12-20T18:56:58;98829.34;;;8.11;100.00
65173;BME280;69059;52.218;5.172;2023-12-20T18:59:47;98818.94;;;8.11;100.00